Time;durP1;ratioP1;P1;durP2;ratioP2;P2;SDS_P1;SDS_P2;PMS_P1;PMS_P2;Temp;Humidity;BMP_temperature;BMP_pressure;BME280_temperature;BME280_humidity;BME280_pressure;Samples;Min_cycle;Max_cycle;Signal;HPM_P1;HPM_P2
2023/02/15 00:01:07;;;;;;;16.80;8.80;;;5.10;99.90;;;;;;6124648;23;20428;-69
2023/02/15 00:03:35;;;;;;;19.77;11.87;;;5.00;99.90;;;;;;6124536;23;20843;-69
2023/02/15 00:06:02;;;;;;;17.23;7.93;;;4.80;99.90;;;;;;6123947;23;20798;-69
2023/02/15 00:08:30;;;;;;;17.87;9.90;;;5.00;99.90;;;;;;6124476;23;20421;-71
2023/02/15 00:11:06;;;;;;;22.03;10.13;;;5.10;99.90;;;;;;6125439;23;20438;-69
2023/02/15 00:13:35;;;;;;;12.70;9.47;;;5.10;99.90;;;;;;6127033;23;20393;-70
2023/02/15 00:16:03;;;;;;;15.37;9.77;;;5.10;99.90;;;;;;6124582;23;20925;-69
2023/02/15 00:18:30;;;;;;;20.13;7.60;;;5.00;99.90;;;;;;6124372;23;20382;-69
2023/02/15 00:20:59;;;;;;;10.90;7.17;;;5.10;99.90;;;;;;6124732;23;20484;-70
2023/02/15 00:23:27;;;;;;;14.83;8.90;;;5.10;99.90;;;;;;6124652;23;20776;-69
2023/02/15 00:26:04;;;;;;;20.40;7.80;;;5.00;99.90;;;;;;6124446;23;20443;-70
2023/02/15 00:28:31;;;;;;;13.50;7.97;;;4.90;99.90;;;;;;6124562;23;20396;-69
2023/02/15 00:31:04;;;;;;;11.77;9.17;;;4.90;99.90;;;;;;6124031;23;20430;-70
2023/02/15 00:33:31;;;;;;;12.27;6.60;;;4.80;99.90;;;;;;6124104;23;20366;-70
2023/02/15 00:36:00;;;;;;;13.90;6.90;;;4.80;99.90;;;;;;6124234;23;20413;-70
2023/02/15 00:38:28;;;;;;;15.17;7.93;;;4.80;99.90;;;;;;6124375;23;20453;-70
2023/02/15 00:40:55;;;;;;;16.07;7.10;;;4.80;99.90;;;;;;6125719;23;20431;-70
2023/02/15 00:43:22;;;;;;;19.30;10.53;;;4.80;99.90;;;;;;6124542;23;20456;-69
2023/02/15 00:45:49;;;;;;;12.27;6.67;;;5.10;99.90;;;;;;6124531;23;20512;-69
2023/02/15 00:48:17;;;;;;;14.13;6.77;;;5.00;99.90;;;;;;6124521;23;20443;-70
2023/02/15 00:50:46;;;;;;;15.90;7.27;;;5.00;99.90;;;;;;6124734;23;20415;-70
2023/02/15 00:53:17;;;;;;;15.07;5.67;;;5.00;99.90;;;;;;6124375;23;20405;-69
2023/02/15 00:55:44;;;;;;;15.57;7.07;;;5.00;99.90;;;;;;6124794;23;20456;-70
2023/02/15 00:58:12;;;;;;;8.53;5.07;;;5.00;99.90;;;;;;6124666;23;20979;-69
2023/02/15 01:00:40;;;;;;;10.13;4.83;;;4.90;99.90;;;;;;6124161;23;20458;-70
2023/02/15 01:03:08;;;;;;;7.97;4.83;;;4.80;99.90;;;;;;6123841;23;20468;-69
2023/02/15 01:05:35;;;;;;;13.73;7.37;;;4.60;99.90;;;;;;6124502;23;20470;-69
2023/02/15 01:08:02;;;;;;;12.43;6.70;;;4.60;99.90;;;;;;6124456;23;20993;-70
2023/02/15 01:10:31;;;;;;;9.13;5.40;;;4.70;99.90;;;;;;6124164;23;20382;-69
2023/02/15 01:12:58;;;;;;;9.07;5.63;;;4.80;99.90;;;;;;6126662;23;20901;-70
2023/02/15 01:15:25;;;;;;;21.40;6.80;;;4.90;99.90;;;;;;6126689;23;20490;-72
2023/02/15 01:17:53;;;;;;;9.20;5.70;;;5.30;99.90;;;;;;6127142;23;20695;-70
2023/02/15 01:20:20;;;;;;;15.93;6.60;;;5.40;99.90;;;;;;6127766;23;20437;-69
2023/02/15 01:22:49;;;;;;;9.40;5.90;;;5.30;99.90;;;;;;6127581;23;20406;-70
2023/02/15 01:25:16;;;;;;;13.30;6.53;;;5.10;99.90;;;;;;6126697;23;20941;-70
2023/02/15 01:27:46;;;;;;;10.20;5.27;;;5.20;99.90;;;;;;6127019;23;20496;-70
2023/02/15 01:30:15;;;;;;;12.70;6.27;;;5.20;99.90;;;;;;6126966;23;20410;-69
2023/02/15 01:32:42;;;;;;;14.50;6.10;;;5.30;99.90;;;;;;6136442;23;20438;-70
2023/02/15 01:35:09;;;;;;;12.97;4.80;;;5.30;99.90;;;;;;6132091;23;20810;-68
2023/02/15 01:37:37;;;;;;;7.00;4.27;;;5.20;99.90;;;;;;6127594;23;20482;-69
2023/02/15 01:40:08;;;;;;;11.83;7.23;;;5.20;99.90;;;;;;6127765;23;20381;-69
2023/02/15 01:42:35;;;;;;;15.87;8.10;;;5.00;99.90;;;;;;6127776;23;20405;-69
2023/02/15 01:45:05;;;;;;;8.43;5.57;;;5.00;99.90;;;;;;6126618;23;20381;-69
2023/02/15 01:47:37;;;;;;;11.30;5.63;;;5.00;99.90;;;;;;6127362;23;20949;-69
2023/02/15 01:50:10;;;;;;;8.30;6.10;;;5.00;99.90;;;;;;6128214;23;20460;-69
2023/02/15 01:52:40;;;;;;;14.50;5.70;;;5.00;99.90;;;;;;6127753;23;20913;-69
2023/02/15 01:55:08;;;;;;;8.23;5.07;;;4.90;99.90;;;;;;6127601;23;20389;-69
2023/02/15 01:57:36;;;;;;;12.23;6.20;;;4.90;99.90;;;;;;6100230;23;20967;-69
2023/02/15 02:00:07;;;;;;;23.60;6.20;;;4.80;99.90;;;;;;6126924;23;20389;-69
2023/02/15 02:02:34;;;;;;;12.50;5.07;;;4.70;99.90;;;;;;6127644;23;20401;-69
2023/02/15 02:05:06;;;;;;;10.50;5.90;;;4.50;99.90;;;;;;6126880;23;20386;-68
2023/02/15 02:07:36;;;;;;;12.00;5.73;;;4.50;99.90;;;;;;6126766;23;20520;-69
2023/02/15 02:10:04;;;;;;;10.00;5.10;;;4.40;99.90;;;;;;6127715;23;20414;-69
2023/02/15 02:12:32;;;;;;;9.50;5.60;;;4.40;99.90;;;;;;6127861;23;20423;-69
2023/02/15 02:14:59;;;;;;;7.90;5.57;;;4.20;99.90;;;;;;6127688;23;20414;-69
2023/02/15 02:17:36;;;;;;;10.37;4.80;;;4.00;99.90;;;;;;6126724;23;20511;-69
2023/02/15 02:20:26;;;;;;;12.23;5.40;;;3.90;99.90;;;;;;6127009;23;20452;-68
2023/02/15 02:23:29;;;;;;;10.90;5.20;;;3.90;99.90;;;;;;6125722;23;20406;-69
2023/02/15 02:26:47;;;;;;;12.10;7.00;;;4.00;99.90;;;;;;6125921;23;20502;-70
2023/02/15 02:30:02;;;;;;;12.67;5.77;;;4.10;99.90;;;;;;6125744;23;20420;-69
2023/02/15 02:32:59;;;;;;;10.00;5.60;;;4.10;99.90;;;;;;6006968;23;20448;-69
2023/02/15 02:35:33;;;;;;;11.33;4.70;;;4.10;99.90;;;;;;6121008;23;20401;-69
2023/02/15 02:38:09;;;;;;;14.40;6.67;;;4.10;99.90;;;;;;6125577;23;21004;-69
2023/02/15 02:40:54;;;;;;;10.93;5.63;;;4.10;99.90;;;;;;6125351;23;20416;-69
2023/02/15 02:43:26;;;;;;;10.53;5.43;;;4.00;99.90;;;;;;6125159;23;20369;-69
2023/02/15 02:45:58;;;;;;;12.40;6.20;;;4.00;99.90;;;;;;6125478;23;20401;-69
2023/02/15 02:48:30;;;;;;;7.70;5.00;;;4.00;99.90;;;;;;6125062;23;20461;-69
2023/02/15 02:50:57;;;;;;;8.87;6.00;;;3.90;99.90;;;;;;6124170;23;20948;-70
2023/02/15 02:53:24;;;;;;;12.83;5.67;;;3.90;99.90;;;;;;6126922;23;20767;-69
2023/02/15 02:55:55;;;;;;;12.00;6.83;;;3.90;99.90;;;;;;6125092;23;20388;-68
2023/02/15 02:58:29;;;;;;;8.63;5.90;;;4.00;99.90;;;;;;6125014;23;20384;-69
2023/02/15 03:01:01;;;;;;;8.53;5.60;;;3.90;99.90;;;;;;6126489;23;20408;-70
2023/02/15 03:03:34;;;;;;;7.53;4.30;;;3.90;99.90;;;;;;6127784;23;20403;-69
2023/02/15 03:06:06;;;;;;;14.20;5.00;;;3.70;99.90;;;;;;6126076;23;20374;-70
2023/02/15 03:08:38;;;;;;;10.30;4.70;;;3.50;99.90;;;;;;6124845;23;20492;-69
2023/02/15 03:11:05;;;;;;;13.90;5.77;;;3.60;99.90;;;;;;6125804;23;20430;-70
2023/02/15 03:13:33;;;;;;;11.50;5.17;;;3.60;99.90;;;;;;6125200;23;20713;-69
2023/02/15 03:19:00;;;;;;;10.60;5.07;;;3.50;99.90;;;;;;6071933;23;20378;-69
2023/02/15 03:21:33;;;;;;;14.17;5.00;;;3.50;99.90;;;;;;6124356;23;20501;-70
2023/02/15 03:24:07;;;;;;;11.80;4.73;;;3.30;99.90;;;;;;6124669;23;20453;-69
2023/02/15 03:26:37;;;;;;;16.73;8.07;;;3.40;99.90;;;;;;6124651;23;21029;-69
2023/02/15 03:29:07;;;;;;;10.50;5.30;;;3.40;99.90;;;;;;6125061;23;20471;-69
2023/02/15 03:31:41;;;;;;;10.37;6.30;;;3.40;99.90;;;;;;6123890;23;20405;-69
2023/02/15 03:34:11;;;;;;;6.87;4.87;;;3.40;99.90;;;;;;6125088;23;20422;-69
2023/02/15 03:36:46;;;;;;;9.33;5.10;;;3.40;99.90;;;;;;6124752;23;20918;-70
2023/02/15 03:39:20;;;;;;;9.53;4.63;;;3.40;99.90;;;;;;6124565;23;20368;-70
2023/02/15 03:41:56;;;;;;;10.10;5.47;;;3.40;99.90;;;;;;6123496;23;20950;-69
2023/02/15 03:44:28;;;;;;;6.73;4.97;;;3.40;99.90;;;;;;6124947;23;20795;-70
2023/02/15 03:47:04;;;;;;;9.60;5.27;;;3.30;99.90;;;;;;6124965;23;20430;-69
2023/02/15 03:49:39;;;;;;;6.37;4.30;;;3.30;99.90;;;;;;6124648;23;20401;-69
2023/02/15 03:52:09;;;;;;;15.17;6.60;;;3.40;99.90;;;;;;6073222;23;20495;-69
2023/02/15 03:54:45;;;;;;;15.40;5.80;;;3.20;99.90;;;;;;6123556;23;20384;-69
2023/02/15 04:02:55;;;;;;;13.13;5.43;;;3.00;99.90;;;;;;6124569;23;20799;-69
2023/02/15 04:05:23;;;;;;;14.90;6.50;;;3.00;99.90;;;;;;6125359;23;20385;-70
2023/02/15 04:07:53;;;;;;;9.70;5.27;;;3.00;99.90;;;;;;6125475;23;20536;-70
2023/02/15 04:13:10;;;;;;;10.70;6.40;;;3.10;99.90;;;;;;6105256;23;20395;-69
2023/02/15 04:18:21;;;;;;;10.40;7.03;;;3.00;99.90;;;;;;6126483;23;20341;-70
2023/02/15 04:26:18;;;;;;;13.20;5.00;;;3.10;99.90;;;;;;6124691;23;20410;-69
2023/02/15 04:28:45;;;;;;;9.87;7.10;;;3.00;99.90;;;;;;6124480;23;20509;-70
2023/02/15 04:31:12;;;;;;;14.33;7.77;;;2.90;99.90;;;;;;6124180;23;20409;-69
2023/02/15 04:33:43;;;;;;;10.10;6.87;;;3.00;99.90;;;;;;6124728;23;20460;-70
2023/02/15 04:36:12;;;;;;;11.33;6.93;;;2.90;99.90;;;;;;6125204;23;20365;-71
2023/02/15 04:38:39;;;;;;;8.23;5.13;;;3.00;99.90;;;;;;6124328;23;20526;-70
2023/02/15 04:41:06;;;;;;;14.40;6.87;;;2.90;99.90;;;;;;6124694;23;20502;-70
2023/02/15 04:43:32;;;;;;;12.63;6.60;;;2.90;99.90;;;;;;6126405;23;20382;-70
2023/02/15 04:45:59;;;;;;;10.17;5.97;;;2.90;99.90;;;;;;6125028;23;20494;-71
2023/02/15 04:48:26;;;;;;;12.60;6.20;;;2.90;99.90;;;;;;6125008;23;20456;-70
2023/02/15 04:50:53;;;;;;;12.07;5.50;;;2.90;99.90;;;;;;6124495;23;20413;-70
2023/02/15 04:53:22;;;;;;;13.70;7.70;;;2.90;99.90;;;;;;6125297;23;20382;-70
2023/02/15 04:55:49;;;;;;;11.97;5.90;;;3.00;99.90;;;;;;6125752;23;20396;-70
2023/02/15 04:58:16;;;;;;;12.03;7.37;;;3.10;99.90;;;;;;6124518;23;20423;-70
2023/02/15 05:00:43;;;;;;;12.30;6.33;;;3.00;99.90;;;;;;6123730;23;20382;-70
2023/02/15 05:03:10;;;;;;;7.83;4.40;;;2.80;99.90;;;;;;6124076;23;20838;-69
2023/02/15 05:05:36;;;;;;;7.73;7.03;;;2.70;99.90;;;;;;6122850;23;20386;-70
2023/02/15 05:08:04;;;;;;;13.60;6.40;;;2.70;99.90;;;;;;6122408;23;20448;-70
2023/02/15 05:10:32;;;;;;;8.43;4.40;;;2.70;99.90;;;;;;6122835;23;20876;-69
2023/02/15 05:12:59;;;;;;;10.30;6.30;;;2.60;99.90;;;;;;6122869;23;20416;-69
2023/02/15 05:15:26;;;;;;;8.50;5.30;;;2.50;99.90;;;;;;6123860;23;20411;-70
2023/02/15 05:17:53;;;;;;;8.63;4.60;;;2.50;99.90;;;;;;6124088;23;20663;-70
2023/02/15 05:20:20;;;;;;;10.87;6.20;;;2.60;99.90;;;;;;6124668;23;20451;-70
2023/02/15 05:22:47;;;;;;;13.40;6.20;;;2.50;99.90;;;;;;6124397;23;20808;-70
2023/02/15 05:30:44;;;;;;;11.00;7.00;;;2.60;99.90;;;;;;6123669;23;20383;-70
2023/02/15 05:33:11;;;;;;;9.33;5.20;;;2.50;99.90;;;;;;6123527;23;20434;-69
2023/02/15 05:35:40;;;;;;;13.67;8.40;;;2.50;99.90;;;;;;6124087;23;20421;-70
2023/02/15 05:38:07;;;;;;;15.83;6.00;;;2.40;99.90;;;;;;6123565;23;20867;-69
2023/02/15 05:40:35;;;;;;;10.73;5.30;;;2.50;99.90;;;;;;6123472;23;20465;-69
2023/02/15 05:43:06;;;;;;;10.37;6.70;;;2.50;99.90;;;;;;6122997;23;20505;-70
2023/02/15 05:45:33;;;;;;;8.80;5.30;;;2.40;99.90;;;;;;6124070;23;20680;-69
2023/02/15 05:48:00;;;;;;;8.40;5.97;;;2.40;99.90;;;;;;6123741;23;20459;-70
2023/02/15 05:50:28;;;;;;;7.83;4.73;;;2.40;99.90;;;;;;6124537;23;20452;-70
2023/02/15 05:52:57;;;;;;;13.30;7.30;;;2.40;99.90;;;;;;6124272;23;20447;-71
2023/02/15 05:55:26;;;;;;;7.13;4.77;;;2.50;99.90;;;;;;6123837;23;20758;-71
2023/02/15 05:57:55;;;;;;;28.37;8.63;;;2.50;99.90;;;;;;6124947;23;20500;-71
2023/02/15 06:00:24;;;;;;;6.97;5.20;;;2.50;99.90;;;;;;6126163;23;20397;-71
2023/02/15 06:02:51;;;;;;;10.17;5.20;;;2.50;99.90;;;;;;6126289;23;20413;-71
2023/02/15 06:05:18;;;;;;;14.63;7.07;;;2.50;99.90;;;;;;6126336;23;20514;-71
2023/02/15 06:07:45;;;;;;;8.03;5.43;;;2.40;99.90;;;;;;6125619;23;20478;-70
2023/02/15 06:10:12;;;;;;;12.40;6.13;;;2.30;99.90;;;;;;6126096;23;20434;-71
2023/02/15 06:12:39;;;;;;;18.30;6.70;;;2.30;99.90;;;;;;6125335;23;20928;-71
2023/02/15 06:15:07;;;;;;;22.50;9.47;;;2.30;99.90;;;;;;6126026;23;20429;-71
2023/02/15 06:17:38;;;;;;;35.53;16.47;;;2.40;99.90;;;;;;6125271;23;20495;-70
2023/02/15 06:20:06;;;;;;;80.10;31.63;;;2.40;99.90;;;;;;6125757;23;20750;-71
2023/02/15 06:22:33;;;;;;;18.40;8.97;;;2.40;99.90;;;;;;6125422;23;20532;-72
2023/02/15 06:25:00;;;;;;;12.70;6.87;;;2.40;99.90;;;;;;6125970;23;20393;-71
2023/02/15 06:27:27;;;;;;;9.80;5.97;;;2.40;99.90;;;;;;6125516;23;20533;-70
2023/02/15 06:29:54;;;;;;;15.03;6.17;;;2.40;99.90;;;;;;6125889;23;20442;-71
2023/02/15 06:32:21;;;;;;;7.87;6.10;;;2.40;99.90;;;;;;6125274;23;20493;-70
2023/02/15 06:34:49;;;;;;;10.03;5.47;;;2.40;99.90;;;;;;6125452;23;20446;-71
2023/02/15 06:37:16;;;;;;;30.17;6.23;;;2.40;99.90;;;;;;6125964;23;20421;-70
2023/02/15 06:39:44;;;;;;;7.87;5.73;;;2.30;99.90;;;;;;6126485;23;20505;-71
2023/02/15 06:42:11;;;;;;;11.23;6.90;;;2.30;99.90;;;;;;6124746;23;20518;-71
2023/02/15 06:44:38;;;;;;;15.83;8.40;;;2.30;99.90;;;;;;6125433;23;20476;-70
2023/02/15 06:47:05;;;;;;;13.33;8.63;;;2.50;99.90;;;;;;6125501;23;20438;-70
2023/02/15 06:49:31;;;;;;;12.20;6.73;;;2.50;99.90;;;;;;6125411;23;20411;-69
2023/02/15 06:52:00;;;;;;;19.77;8.10;;;2.50;99.90;;;;;;6125888;23;20517;-70
2023/02/15 06:54:27;;;;;;;13.93;8.17;;;2.50;99.90;;;;;;6130209;23;20752;-70
2023/02/15 06:56:54;;;;;;;15.90;11.00;;;2.60;99.90;;;;;;6128441;23;20374;-71
2023/02/15 06:59:21;;;;;;;9.43;6.63;;;2.70;99.90;;;;;;6126141;23;20445;-70
2023/02/15 07:01:48;;;;;;;12.03;6.97;;;2.60;99.90;;;;;;6125697;23;20435;-70
2023/02/15 07:04:15;;;;;;;16.90;7.40;;;2.50;99.90;;;;;;6124870;23;20389;-70
2023/02/15 07:06:42;;;;;;;23.30;8.93;;;2.60;99.90;;;;;;6125069;23;20490;-70
2023/02/15 07:09:11;;;;;;;20.20;8.33;;;2.50;99.90;;;;;;6123485;23;20444;-70
2023/02/15 07:14:22;;;;;;;11.67;8.13;;;2.60;99.90;;;;;;6124879;23;20370;-70
2023/02/15 07:16:49;;;;;;;11.93;6.70;;;2.70;99.90;;;;;;6125498;23;20442;-69
2023/02/15 07:19:19;;;;;;;7.60;5.23;;;2.80;99.90;;;;;;6124739;23;21059;-70
2023/02/15 07:21:46;;;;;;;15.33;6.87;;;2.70;99.90;;;;;;6125210;23;21017;-70
2023/02/15 07:24:15;;;;;;;18.10;6.93;;;2.90;99.90;;;;;;6125734;23;20415;-70
2023/02/15 07:26:41;;;;;;;14.30;8.30;;;3.00;99.90;;;;;;6124683;23;20497;-70
2023/02/15 07:29:08;;;;;;;8.77;6.10;;;3.10;99.90;;;;;;6125562;23;20429;-70
2023/02/15 07:31:35;;;;;;;9.83;5.73;;;3.30;99.90;;;;;;6124735;23;20522;-70
2023/02/15 07:34:06;;;;;;;12.27;6.77;;;3.50;99.90;;;;;;6125297;23;20410;-70
2023/02/15 07:36:33;;;;;;;17.23;7.60;;;3.70;99.90;;;;;;6125753;23;20410;-69
2023/02/15 07:38:59;;;;;;;29.50;9.70;;;3.90;99.90;;;;;;6125409;23;20451;-70
2023/02/15 07:41:28;;;;;;;15.23;8.47;;;4.30;99.90;;;;;;6125650;23;20438;-70
2023/02/15 07:43:55;;;;;;;16.70;9.10;;;4.40;99.90;;;;;;6125565;23;20464;-70
2023/02/15 07:46:22;;;;;;;21.90;9.60;;;4.50;99.90;;;;;;6124621;23;20386;-70
2023/02/15 07:48:49;;;;;;;11.83;7.43;;;4.30;99.90;;;;;;6124995;23;20729;-70
2023/02/15 07:51:16;;;;;;;25.23;8.90;;;4.20;99.90;;;;;;6125104;23;20505;-70
2023/02/15 07:53:43;;;;;;;13.63;8.53;;;4.30;99.90;;;;;;6124507;23;20493;-70
2023/02/15 07:56:15;;;;;;;17.30;9.07;;;4.20;99.90;;;;;;6124784;23;20417;-70
2023/02/15 07:58:52;;;;;;;11.60;6.77;;;4.30;99.90;;;;;;6124885;23;20366;-69
2023/02/15 08:01:20;;;;;;;11.70;6.20;;;4.40;99.90;;;;;;6124487;23;20448;-70
2023/02/15 08:03:51;;;;;;;21.03;8.13;;;4.70;99.90;;;;;;6124678;23;20947;-70
2023/02/15 08:06:19;;;;;;;20.60;8.80;;;4.80;99.90;;;;;;6125174;23;20366;-69
2023/02/15 08:08:46;;;;;;;19.87;8.70;;;4.90;99.90;;;;;;6124595;23;20450;-69
2023/02/15 08:11:36;;;;;;;16.27;8.30;;;5.00;99.90;;;;;;6124513;23;20472;-70
2023/02/15 08:14:06;;;;;;;11.67;7.70;;;5.20;99.90;;;;;;6125126;23;20434;-70
2023/02/15 08:16:35;;;;;;;15.63;8.30;;;5.30;99.90;;;;;;6125022;23;20409;-69
2023/02/15 08:19:04;;;;;;;16.90;7.10;;;5.40;99.90;;;;;;6124919;23;20468;-70
2023/02/15 08:21:32;;;;;;;20.80;8.27;;;5.80;99.90;;;;;;6124056;23;20409;-69
2023/02/15 08:24:00;;;;;;;23.33;10.33;;;6.10;99.90;;;;;;6125028;23;20423;-70
2023/02/15 08:26:28;;;;;;;27.10;11.03;;;6.50;99.90;;;;;;6124715;23;20394;-69
2023/02/15 08:28:56;;;;;;;22.03;10.60;;;7.00;99.90;;;;;;6124493;23;20417;-70
2023/02/15 08:31:25;;;;;;;19.90;10.53;;;7.50;99.90;;;;;;6123890;23;20440;-70
2023/02/15 08:33:54;;;;;;;29.03;11.47;;;8.10;99.90;;;;;;6124309;23;20891;-70
2023/02/15 08:36:24;;;;;;;18.37;9.67;;;8.70;99.90;;;;;;6124886;23;20744;-70
2023/02/15 08:38:52;;;;;;;21.97;12.20;;;9.30;99.90;;;;;;6124575;23;20659;-70
2023/02/15 08:41:20;;;;;;;26.93;10.60;;;10.00;99.90;;;;;;6124565;23;21018;-70
2023/02/15 08:43:48;;;;;;;20.07;10.33;;;10.70;99.90;;;;;;6125244;23;20534;-70
2023/02/15 08:46:16;;;;;;;19.77;10.03;;;11.40;99.90;;;;;;6124408;23;20486;-70
2023/02/15 08:48:45;;;;;;;21.60;12.13;;;12.00;99.90;;;;;;6124472;23;20754;-71
2023/02/15 08:51:14;;;;;;;14.97;11.10;;;12.10;99.90;;;;;;6124901;23;20431;-70
2023/02/15 08:53:42;;;;;;;23.77;10.77;;;12.10;99.90;;;;;;6124833;23;20430;-70
2023/02/15 08:56:10;;;;;;;26.67;13.50;;;11.80;99.90;;;;;;6124957;23;20812;-70
2023/02/15 08:58:39;;;;;;;27.97;13.30;;;11.10;99.90;;;;;;6124998;23;20533;-70
2023/02/15 09:01:10;;;;;;;17.80;9.97;;;10.90;99.90;;;;;;6124827;23;20505;-70
2023/02/15 09:03:37;;;;;;;24.30;12.50;;;10.70;99.90;;;;;;6124221;23;20497;-70
2023/02/15 09:06:07;;;;;;;17.83;10.27;;;10.60;99.90;;;;;;6124122;23;20995;-70
2023/02/15 09:08:34;;;;;;;15.67;8.70;;;11.10;99.90;;;;;;6124340;23;21033;-71
2023/02/15 09:11:10;;;;;;;18.60;10.00;;;11.50;99.90;;;;;;6123974;23;20431;-70
2023/02/15 09:13:37;;;;;;;25.30;13.67;;;12.30;99.90;;;;;;6124935;23;20410;-70
2023/02/15 09:16:06;;;;;;;23.30;11.63;;;13.50;99.90;;;;;;6124314;23;20415;-70
2023/02/15 09:18:35;;;;;;;24.90;12.83;;;14.40;99.90;;;;;;6124788;23;20482;-70
2023/02/15 09:21:08;;;;;;;18.30;10.17;;;15.20;99.90;;;;;;6124143;23;20431;-70
2023/02/15 09:23:35;;;;;;;18.27;11.27;;;15.90;99.90;;;;;;6124478;23;20987;-70
2023/02/15 09:26:05;;;;;;;21.00;11.90;;;16.30;99.90;;;;;;6123997;23;20554;-70
2023/02/15 09:28:33;;;;;;;21.87;13.23;;;15.80;99.90;;;;;;6124305;23;20450;-70
2023/02/15 09:31:06;;;;;;;22.03;11.27;;;15.20;99.90;;;;;;6124289;23;20433;-70
2023/02/15 09:33:34;;;;;;;24.10;12.20;;;14.70;99.90;;;;;;6126054;23;20392;-69
2023/02/15 09:36:01;;;;;;;20.70;12.27;;;14.40;99.90;;;;;;6126838;23;20421;-69
2023/02/15 09:38:30;;;;;;;17.90;13.27;;;14.20;99.90;;;;;;6125918;23;20489;-70
2023/02/15 09:41:15;;;;;;;23.63;12.53;;;14.30;99.90;;;;;;6126274;23;20470;-70
2023/02/15 09:43:51;;;;;;;20.10;13.03;;;14.80;99.90;;;;;;6126440;23;20426;-70
2023/02/15 09:46:35;;;;;;;20.63;11.47;;;16.00;99.90;;;;;;6126014;23;20399;-69
2023/02/15 09:49:09;;;;;;;19.77;11.77;;;16.10;99.50;;;;;;6075313;23;20538;-69
2023/02/15 09:52:09;;;;;;;19.00;11.57;;;16.90;99.90;;;;;;6126430;23;20517;-70
2023/02/15 09:54:56;;;;;;;29.53;12.63;;;17.70;98.40;;;;;;6119268;23;20470;-70
2023/02/15 09:57:33;;;;;;;18.73;11.17;;;18.40;97.50;;;;;;6126338;23;20418;-70
2023/02/15 10:00:11;;;;;;;26.10;15.20;;;18.60;95.80;;;;;;6126579;23;20458;-70
2023/02/15 10:02:54;;;;;;;26.30;13.80;;;19.00;94.40;;;;;;6126975;23;20732;-69
2023/02/15 10:05:28;;;;;;;18.80;12.53;;;19.20;93.60;;;;;;6126077;23;20482;-69
2023/02/15 10:08:20;;;;;;;20.00;13.57;;;20.30;92.50;;;;;;6125854;23;20752;-70
2023/02/15 10:11:38;;;;;;;26.97;14.17;;;21.30;90.60;;;;;;6122386;23;20434;-70
2023/02/15 10:13:54;;;;;;;24.07;13.10;;;21.70;87.20;;;;;;6125585;23;20433;-70
2023/02/15 10:16:31;;;;;;;19.77;12.53;;;21.10;86.30;;;;;;6126108;23;20378;-70
2023/02/15 10:19:12;;;;;;;20.27;11.80;;;21.30;85.40;;;;;;6125523;23;20419;-70
2023/02/15 10:21:52;;;;;;;22.53;13.50;;;20.90;81.90;;;;;;6125799;23;20815;-70
2023/02/15 10:24:45;;;;;;;22.73;13.73;;;21.30;84.60;;;;;;6126120;23;20467;-70
2023/02/15 10:27:21;;;;;;;21.50;12.30;;;22.10;79.20;;;;;;6125556;23;20411;-70
2023/02/15 10:30:00;;;;;;;22.57;12.80;;;22.20;78.70;;;;;;6126656;23;20485;-70
2023/02/15 10:32:30;;;;;;;25.67;12.17;;;22.50;78.00;;;;;;6125846;23;20462;-70
2023/02/15 10:35:02;;;;;;;21.03;10.70;;;22.80;76.30;;;;;;6126172;23;20800;-70
2023/02/15 10:37:59;;;;;;;21.27;11.50;;;23.00;72.50;;;;;;6126051;23;20438;-70
2023/02/15 10:40:35;;;;;;;17.53;10.97;;;23.00;70.90;;;;;;6126252;23;20414;-71
2023/02/15 10:43:21;;;;;;;19.33;13.27;;;23.80;69.70;;;;;;6125830;23;20387;-72
2023/02/15 10:45:58;;;;;;;19.53;12.90;;;23.80;67.90;;;;;;6125355;23;20391;-71
2023/02/15 10:48:39;;;;;;;20.63;13.27;;;24.10;68.50;;;;;;6126338;23;20461;-70
2023/02/15 10:51:12;;;;;;;18.10;11.10;;;23.90;66.80;;;;;;6125250;23;20939;-70
2023/02/15 10:53:58;;;;;;;18.00;12.30;;;23.10;68.30;;;;;;6125676;23;20391;-70
2023/02/15 10:56:36;;;;;;;18.80;12.20;;;22.90;69.90;;;;;;6125871;23;20442;-71
2023/02/15 10:59:27;;;;;;;19.00;11.17;;;23.10;69.60;;;;;;6125473;23;20383;-71
2023/02/15 11:02:00;;;;;;;17.53;11.37;;;22.80;67.70;;;;;;6126035;23;20509;-71
2023/02/15 11:04:51;;;;;;;20.40;11.73;;;22.80;69.30;;;;;;6126535;23;20418;-71
2023/02/15 11:07:24;;;;;;;16.27;11.87;;;22.80;69.90;;;;;;6121695;23;20453;-71
2023/02/15 11:09:55;;;;;;;25.13;15.43;;;23.00;69.90;;;;;;6126144;23;20427;-70
2023/02/15 11:12:27;;;;;;;24.50;13.43;;;23.20;68.20;;;;;;6125956;23;20438;-70
2023/02/15 11:15:01;;;;;;;27.57;14.27;;;22.90;69.20;;;;;;6125805;23;20905;-70
2023/02/15 11:17:37;;;;;;;17.77;13.27;;;22.10;70.40;;;;;;6125962;23;20888;-70
2023/02/15 11:20:10;;;;;;;24.33;12.30;;;22.70;70.50;;;;;;6125802;23;20391;-70
2023/02/15 11:22:37;;;;;;;20.63;13.47;;;23.30;67.20;;;;;;6125381;23;20454;-69
2023/02/15 11:25:18;;;;;;;21.13;12.93;;;23.60;65.50;;;;;;6125511;23;20415;-70
2023/02/15 11:27:51;;;;;;;31.70;11.87;;;23.70;65.40;;;;;;6125299;23;20470;-70
2023/02/15 11:30:25;;;;;;;21.73;12.37;;;23.50;63.90;;;;;;6125365;23;20489;-70
2023/02/15 11:32:55;;;;;;;22.13;12.17;;;23.40;64.70;;;;;;6123510;23;20431;-70
2023/02/15 11:35:28;;;;;;;15.83;11.60;;;23.30;65.50;;;;;;6125323;23;20411;-70
2023/02/15 11:38:02;;;;;;;20.00;13.27;;;22.90;64.20;;;;;;6126076;23;20462;-71
2023/02/15 11:40:33;;;;;;;21.50;14.60;;;23.00;64.10;;;;;;6125386;23;20790;-70
2023/02/15 11:43:05;;;;;;;21.50;13.57;;;23.50;62.80;;;;;;6125772;23;20918;-70
2023/02/15 11:45:35;;;;;;;18.27;10.00;;;24.10;61.90;;;;;;6125944;23;20431;-70
2023/02/15 11:48:09;;;;;;;18.20;10.70;;;24.10;61.10;;;;;;6126158;23;20399;-71
2023/02/15 11:50:37;;;;;;;17.13;11.07;;;24.70;59.80;;;;;;6125636;23;20454;-70
2023/02/15 11:53:07;;;;;;;19.40;10.90;;;24.80;59.30;;;;;;6126207;23;20407;-71
2023/02/15 11:55:34;;;;;;;18.63;11.90;;;25.30;58.90;;;;;;6124971;23;20497;-71
2023/02/15 11:58:09;;;;;;;16.43;10.77;;;26.00;57.60;;;;;;6125536;23;20820;-71
2023/02/15 12:00:43;;;;;;;17.30;10.87;;;25.80;58.00;;;;;;6125080;23;20473;-71
2023/02/15 12:03:18;;;;;;;15.70;9.43;;;25.80;56.00;;;;;;6125870;23;20394;-71
2023/02/15 12:05:47;;;;;;;14.83;9.60;;;25.70;55.30;;;;;;6124843;23;20433;-71
2023/02/15 12:08:18;;;;;;;14.87;9.17;;;26.00;54.70;;;;;;6127298;23;20527;-71
2023/02/15 12:10:54;;;;;;;15.40;9.63;;;26.40;53.80;;;;;;6131555;23;20431;-72
2023/02/15 12:13:23;;;;;;;10.73;8.53;;;26.40;54.80;;;;;;6125883;23;20477;-72
2023/02/15 12:15:54;;;;;;;15.90;10.40;;;26.80;52.80;;;;;;6125611;23;20743;-71
2023/02/15 12:18:35;;;;;;;13.57;8.63;;;27.00;53.30;;;;;;6125307;23;20470;-71
2023/02/15 12:21:06;;;;;;;16.07;8.37;;;27.10;52.30;;;;;;6125218;23;20429;-71
2023/02/15 12:23:34;;;;;;;12.47;8.60;;;27.00;51.60;;;;;;6125109;23;20463;-71
2023/02/15 12:26:05;;;;;;;15.57;8.17;;;27.00;51.00;;;;;;6124433;23;20446;-71
2023/02/15 12:28:34;;;;;;;11.83;7.93;;;27.00;52.00;;;;;;6124774;23;20543;-70
2023/02/15 12:31:08;;;;;;;13.27;7.50;;;26.60;50.90;;;;;;6124332;23;20521;-70
2023/02/15 12:33:37;;;;;;;12.43;8.87;;;26.50;49.80;;;;;;6124619;23;20415;-70
2023/02/15 12:36:12;;;;;;;10.50;5.77;;;26.40;49.50;;;;;;6124795;23;20435;-70
2023/02/15 12:38:39;;;;;;;15.13;7.47;;;26.00;48.20;;;;;;6124139;23;20430;-70
2023/02/15 12:41:23;;;;;;;13.33;6.67;;;25.60;49.30;;;;;;6124631;23;21006;-70
2023/02/15 12:44:05;;;;;;;10.47;5.90;;;25.90;48.00;;;;;;6124763;23;20400;-70
2023/02/15 12:46:34;;;;;;;14.50;9.00;;;25.60;47.80;;;;;;6124646;23;20398;-70
2023/02/15 12:49:19;;;;;;;11.87;6.67;;;25.20;49.30;;;;;;6124745;23;20795;-70
2023/02/15 12:51:49;;;;;;;16.83;7.03;;;25.20;48.00;;;;;;6124719;23;20427;-70
2023/02/15 12:54:30;;;;;;;12.40;5.93;;;24.70;48.20;;;;;;6125098;23;20486;-70
2023/02/15 12:56:58;;;;;;;14.97;7.03;;;24.40;47.50;;;;;;6124718;23;20518;-69
2023/02/15 12:59:25;;;;;;;11.33;6.60;;;24.80;48.90;;;;;;6125368;23;20773;-69
2023/02/15 13:01:57;;;;;;;12.77;6.10;;;25.10;47.80;;;;;;6124369;23;20971;-70
2023/02/15 13:04:27;;;;;;;14.17;7.57;;;25.10;48.10;;;;;;6125275;23;20415;-69
2023/02/15 13:06:57;;;;;;;18.47;8.30;;;25.30;47.80;;;;;;6124501;23;20411;-70
2023/02/15 13:09:40;;;;;;;10.23;6.07;;;25.90;48.60;;;;;;6124624;23;20529;-70
2023/02/15 13:12:17;;;;;;;14.03;7.53;;;26.30;47.30;;;;;;6124283;23;20458;-70
2023/02/15 13:14:46;;;;;;;12.33;5.67;;;26.10;46.80;;;;;;6124123;23;20387;-71
2023/02/15 13:17:19;;;;;;;10.40;6.60;;;25.90;47.80;;;;;;6124320;23;20415;-70
2023/02/15 13:19:52;;;;;;;9.80;6.20;;;26.30;46.60;;;;;;6124594;23;20391;-70
2023/02/15 13:22:23;;;;;;;10.73;6.83;;;26.40;46.10;;;;;;6124166;23;20978;-70
2023/02/15 13:24:56;;;;;;;11.27;7.23;;;26.00;46.10;;;;;;6124880;23;20399;-70
2023/02/15 13:27:40;;;;;;;13.17;7.07;;;26.20;47.50;;;;;;6124248;23;20419;-70
2023/02/15 13:30:21;;;;;;;8.60;6.73;;;26.40;46.40;;;;;;6124465;23;20947;-71